sensor_id;sensor_type;location;lat;lon;timestamp;temperature;humidity
27114;DHT22;14648;49.730;8.614;2023-07-02T00:01:49;19.50;60.50
27114;DHT22;14648;49.730;8.614;2023-07-02T00:04:15;19.50;60.20
27114;DHT22;14648;49.730;8.614;2023-07-02T00:06:45;19.40;60.00
27114;DHT22;14648;49.730;8.614;2023-07-02T00:09:12;19.40;59.90
27114;DHT22;14648;49.730;8.614;2023-07-02T00:11:39;19.40;59.90
27114;DHT22;14648;49.730;8.614;2023-07-02T00:14:08;19.40;59.90
27114;DHT22;14648;49.730;8.614;2023-07-02T00:16:35;19.40;59.80
27114;DHT22;14648;49.730;8.614;2023-07-02T00:19:02;19.40;59.80
27114;DHT22;14648;49.730;8.614;2023-07-02T00:21:29;19.40;59.80
27114;DHT22;14648;49.730;8.614;2023-07-02T00:23:55;19.40;59.70
27114;DHT22;14648;49.730;8.614;2023-07-02T00:26:25;19.40;59.50
27114;DHT22;14648;49.730;8.614;2023-07-02T00:28:53;19.40;59.40
27114;DHT22;14648;49.730;8.614;2023-07-02T00:31:19;19.40;60.00
27114;DHT22;14648;49.730;8.614;2023-07-02T00:33:45;19.30;59.20
27114;DHT22;14648;49.730;8.614;2023-07-02T00:36:13;19.30;59.30
27114;DHT22;14648;49.730;8.614;2023-07-02T00:38:45;19.30;59.20
27114;DHT22;14648;49.730;8.614;2023-07-02T00:41:12;19.30;59.10
27114;DHT22;14648;49.730;8.614;2023-07-02T00:43:38;19.20;59.10
27114;DHT22;14648;49.730;8.614;2023-07-02T00:46:13;19.10;59.10
27114;DHT22;14648;49.730;8.614;2023-07-02T00:48:46;19.10;59.00
27114;DHT22;14648;49.730;8.614;2023-07-02T00:51:19;19.00;59.00
27114;DHT22;14648;49.730;8.614;2023-07-02T00:53:47;19.00;59.00
27114;DHT22;14648;49.730;8.614;2023-07-02T00:56:13;18.90;59.10
27114;DHT22;14648;49.730;8.614;2023-07-02T00:58:40;18.90;59.00
27114;DHT22;14648;49.730;8.614;2023-07-02T01:01:22;18.90;58.90
27114;DHT22;14648;49.730;8.614;2023-07-02T01:04:01;18.80;58.80
27114;DHT22;14648;49.730;8.614;2023-07-02T01:06:30;18.80;58.60
27114;DHT22;14648;49.730;8.614;2023-07-02T01:09:06;18.80;58.60
27114;DHT22;14648;49.730;8.614;2023-07-02T01:11:33;18.70;58.40
27114;DHT22;14648;49.730;8.614;2023-07-02T01:14:25;18.70;58.40
27114;DHT22;14648;49.730;8.614;2023-07-02T01:16:53;18.70;58.10
27114;DHT22;14648;49.730;8.614;2023-07-02T01:19:44;18.70;58.10
27114;DHT22;14648;49.730;8.614;2023-07-02T01:22:22;18.70;58.00
27114;DHT22;14648;49.730;8.614;2023-07-02T01:24:51;18.60;57.80
27114;DHT22;14648;49.730;8.614;2023-07-02T01:27:17;18.60;57.80
27114;DHT22;14648;49.730;8.614;2023-07-02T01:29:44;18.60;57.80
27114;DHT22;14648;49.730;8.614;2023-07-02T01:32:16;18.60;57.70
27114;DHT22;14648;49.730;8.614;2023-07-02T01:34:42;18.50;57.70
27114;DHT22;14648;49.730;8.614;2023-07-02T01:37:09;18.50;57.60
27114;DHT22;14648;49.730;8.614;2023-07-02T01:39:35;18.50;57.60
27114;DHT22;14648;49.730;8.614;2023-07-02T01:42:12;18.50;57.50
27114;DHT22;14648;49.730;8.614;2023-07-02T01:44:40;18.50;57.40
27114;DHT22;14648;49.730;8.614;2023-07-02T01:47:05;18.50;57.50
27114;DHT22;14648;49.730;8.614;2023-07-02T01:49:31;18.40;57.40
27114;DHT22;14648;49.730;8.614;2023-07-02T01:51:58;18.40;57.30
27114;DHT22;14648;49.730;8.614;2023-07-02T01:54:25;18.50;57.20
27114;DHT22;14648;49.730;8.614;2023-07-02T01:56:55;18.50;56.90
27114;DHT22;14648;49.730;8.614;2023-07-02T01:59:22;18.50;56.60
27114;DHT22;14648;49.730;8.614;2023-07-02T02:01:47;18.50;56.40
27114;DHT22;14648;49.730;8.614;2023-07-02T02:04:14;18.50;56.30
27114;DHT22;14648;49.730;8.614;2023-07-02T02:06:40;18.50;56.00
27114;DHT22;14648;49.730;8.614;2023-07-02T02:09:06;18.50;55.90
27114;DHT22;14648;49.730;8.614;2023-07-02T02:11:33;18.50;55.90
27114;DHT22;14648;49.730;8.614;2023-07-02T02:14:00;18.50;55.70
27114;DHT22;14648;49.730;8.614;2023-07-02T02:16:27;18.60;55.60
27114;DHT22;14648;49.730;8.614;2023-07-02T02:18:53;18.50;55.60
27114;DHT22;14648;49.730;8.614;2023-07-02T02:21:20;18.60;55.50
27114;DHT22;14648;49.730;8.614;2023-07-02T02:23:46;18.50;55.60
27114;DHT22;14648;49.730;8.614;2023-07-02T02:26:12;18.50;55.50
27114;DHT22;14648;49.730;8.614;2023-07-02T02:28:38;18.60;55.50
27114;DHT22;14648;49.730;8.614;2023-07-02T02:31:04;18.60;55.50
27114;DHT22;14648;49.730;8.614;2023-07-02T02:33:30;18.50;55.60
27114;DHT22;14648;49.730;8.614;2023-07-02T02:35:56;18.50;55.60
27114;DHT22;14648;49.730;8.614;2023-07-02T02:38:21;18.50;55.80
27114;DHT22;14648;49.730;8.614;2023-07-02T02:40:47;18.40;55.80
27114;DHT22;14648;49.730;8.614;2023-07-02T02:43:13;18.50;55.80
27114;DHT22;14648;49.730;8.614;2023-07-02T02:45:39;18.40;56.30
27114;DHT22;14648;49.730;8.614;2023-07-02T02:48:04;18.40;55.60
27114;DHT22;14648;49.730;8.614;2023-07-02T02:50:31;18.40;55.70
27114;DHT22;14648;49.730;8.614;2023-07-02T02:52:56;18.40;55.60
27114;DHT22;14648;49.730;8.614;2023-07-02T02:55:22;18.40;55.50
27114;DHT22;14648;49.730;8.614;2023-07-02T02:57:48;18.40;55.50
27114;DHT22;14648;49.730;8.614;2023-07-02T03:00:14;18.30;55.50
27114;DHT22;14648;49.730;8.614;2023-07-02T03:02:40;18.30;55.60
27114;DHT22;14648;49.730;8.614;2023-07-02T03:05:08;18.30;55.60
27114;DHT22;14648;49.730;8.614;2023-07-02T03:07:34;18.20;55.60
27114;DHT22;14648;49.730;8.614;2023-07-02T03:10:01;18.20;55.70
27114;DHT22;14648;49.730;8.614;2023-07-02T03:12:27;18.20;55.70
27114;DHT22;14648;49.730;8.614;2023-07-02T03:14:53;18.10;55.70
27114;DHT22;14648;49.730;8.614;2023-07-02T03:17:23;18.10;55.70
27114;DHT22;14648;49.730;8.614;2023-07-02T03:19:50;18.00;55.60
27114;DHT22;14648;49.730;8.614;2023-07-02T03:22:16;18.00;55.60
27114;DHT22;14648;49.730;8.614;2023-07-02T03:24:41;18.00;55.60
27114;DHT22;14648;49.730;8.614;2023-07-02T03:27:07;18.00;55.50
27114;DHT22;14648;49.730;8.614;2023-07-02T03:29:36;18.00;55.30
27114;DHT22;14648;49.730;8.614;2023-07-02T03:32:03;17.90;55.10
27114;DHT22;14648;49.730;8.614;2023-07-02T03:34:33;17.90;55.20
27114;DHT22;14648;49.730;8.614;2023-07-02T03:36:59;17.90;55.30
27114;DHT22;14648;49.730;8.614;2023-07-02T03:39:25;17.80;55.10
27114;DHT22;14648;49.730;8.614;2023-07-02T03:41:51;17.80;55.10
27114;DHT22;14648;49.730;8.614;2023-07-02T03:44:16;17.80;55.10
27114;DHT22;14648;49.730;8.614;2023-07-02T03:46:43;17.80;55.20
27114;DHT22;14648;49.730;8.614;2023-07-02T03:49:08;17.80;55.20
27114;DHT22;14648;49.730;8.614;2023-07-02T03:51:34;17.80;55.20
27114;DHT22;14648;49.730;8.614;2023-07-02T03:54:00;17.70;55.20
27114;DHT22;14648;49.730;8.614;2023-07-02T03:56:25;17.70;55.30
27114;DHT22;14648;49.730;8.614;2023-07-02T03:58:52;17.70;55.30
27114;DHT22;14648;49.730;8.614;2023-07-02T04:01:18;17.70;55.40
27114;DHT22;14648;49.730;8.614;2023-07-02T04:03:51;17.70;55.40
27114;DHT22;14648;49.730;8.614;2023-07-02T04:06:18;17.70;55.50
27114;DHT22;14648;49.730;8.614;2023-07-02T04:08:44;17.60;55.40
27114;DHT22;14648;49.730;8.614;2023-07-02T04:11:11;17.60;55.50
27114;DHT22;14648;49.730;8.614;2023-07-02T04:13:37;17.60;55.50
27114;DHT22;14648;49.730;8.614;2023-07-02T04:16:04;17.60;55.50
27114;DHT22;14648;49.730;8.614;2023-07-02T04:18:29;17.50;55.60
27114;DHT22;14648;49.730;8.614;2023-07-02T04:20:56;17.50;55.60
27114;DHT22;14648;49.730;8.614;2023-07-02T04:23:22;17.50;55.70
27114;DHT22;14648;49.730;8.614;2023-07-02T04:25:48;17.50;55.80
27114;DHT22;14648;49.730;8.614;2023-07-02T04:28:13;17.40;55.70
27114;DHT22;14648;49.730;8.614;2023-07-02T04:30:39;17.40;55.70
27114;DHT22;14648;49.730;8.614;2023-07-02T04:33:05;17.50;55.90
27114;DHT22;14648;49.730;8.614;2023-07-02T04:35:31;17.50;56.00
27114;DHT22;14648;49.730;8.614;2023-07-02T04:37:57;17.50;55.90
27114;DHT22;14648;49.730;8.614;2023-07-02T04:40:24;17.50;55.90
27114;DHT22;14648;49.730;8.614;2023-07-02T04:42:50;17.60;55.90
27114;DHT22;14648;49.730;8.614;2023-07-02T04:45:23;17.50;55.90
27114;DHT22;14648;49.730;8.614;2023-07-02T04:47:50;17.60;55.90
27114;DHT22;14648;49.730;8.614;2023-07-02T04:50:17;17.60;55.90
27114;DHT22;14648;49.730;8.614;2023-07-02T04:52:43;17.60;55.80
27114;DHT22;14648;49.730;8.614;2023-07-02T04:55:09;17.60;55.80
27114;DHT22;14648;49.730;8.614;2023-07-02T04:57:35;17.70;55.90
27114;DHT22;14648;49.730;8.614;2023-07-02T05:00:01;17.60;55.80
27114;DHT22;14648;49.730;8.614;2023-07-02T05:02:29;17.60;55.80
27114;DHT22;14648;49.730;8.614;2023-07-02T05:04:55;17.70;55.90
27114;DHT22;14648;49.730;8.614;2023-07-02T05:07:20;17.70;55.90
27114;DHT22;14648;49.730;8.614;2023-07-02T05:09:46;17.70;55.90
27114;DHT22;14648;49.730;8.614;2023-07-02T05:12:13;17.70;55.90
27114;DHT22;14648;49.730;8.614;2023-07-02T05:14:39;17.70;55.90
27114;DHT22;14648;49.730;8.614;2023-07-02T05:17:05;17.70;56.00
27114;DHT22;14648;49.730;8.614;2023-07-02T05:19:30;17.80;56.10
27114;DHT22;14648;49.730;8.614;2023-07-02T05:21:56;17.70;56.10
27114;DHT22;14648;49.730;8.614;2023-07-02T05:24:22;17.80;56.10
27114;DHT22;14648;49.730;8.614;2023-07-02T05:26:47;17.80;56.10
27114;DHT22;14648;49.730;8.614;2023-07-02T05:29:13;17.80;56.10
27114;DHT22;14648;49.730;8.614;2023-07-02T05:31:39;17.90;56.20
27114;DHT22;14648;49.730;8.614;2023-07-02T05:34:05;18.00;56.20
27114;DHT22;14648;49.730;8.614;2023-07-02T05:36:31;18.00;56.20
27114;DHT22;14648;49.730;8.614;2023-07-02T05:38:57;18.00;56.20
27114;DHT22;14648;49.730;8.614;2023-07-02T05:41:22;18.00;56.10
27114;DHT22;14648;49.730;8.614;2023-07-02T05:43:48;18.10;56.20
27114;DHT22;14648;49.730;8.614;2023-07-02T05:46:15;18.00;56.10
27114;DHT22;14648;49.730;8.614;2023-07-02T05:48:41;18.10;56.20
27114;DHT22;14648;49.730;8.614;2023-07-02T05:51:08;18.10;56.20
27114;DHT22;14648;49.730;8.614;2023-07-02T05:53:34;18.20;56.30
27114;DHT22;14648;49.730;8.614;2023-07-02T05:56:00;18.20;56.20
27114;DHT22;14648;49.730;8.614;2023-07-02T05:58:26;18.20;56.20
27114;DHT22;14648;49.730;8.614;2023-07-02T06:00:51;18.20;56.00
27114;DHT22;14648;49.730;8.614;2023-07-02T06:03:18;18.20;56.00
27114;DHT22;14648;49.730;8.614;2023-07-02T06:05:49;18.20;56.00
27114;DHT22;14648;49.730;8.614;2023-07-02T06:08:16;18.30;56.10
27114;DHT22;14648;49.730;8.614;2023-07-02T06:10:43;18.30;56.00
27114;DHT22;14648;49.730;8.614;2023-07-02T06:13:10;18.40;56.00
27114;DHT22;14648;49.730;8.614;2023-07-02T06:15:36;18.40;56.00
27114;DHT22;14648;49.730;8.614;2023-07-02T06:18:02;18.50;56.00
27114;DHT22;14648;49.730;8.614;2023-07-02T06:20:28;18.50;55.90
27114;DHT22;14648;49.730;8.614;2023-07-02T06:22:54;18.50;55.80
27114;DHT22;14648;49.730;8.614;2023-07-02T06:25:19;18.60;55.70
27114;DHT22;14648;49.730;8.614;2023-07-02T06:27:45;18.70;55.70
27114;DHT22;14648;49.730;8.614;2023-07-02T06:30:11;18.70;55.60
27114;DHT22;14648;49.730;8.614;2023-07-02T06:32:37;18.80;55.50
27114;DHT22;14648;49.730;8.614;2023-07-02T06:35:04;19.00;55.50
27114;DHT22;14648;49.730;8.614;2023-07-02T06:37:31;19.10;55.40
27114;DHT22;14648;49.730;8.614;2023-07-02T06:39:58;19.10;55.20
27114;DHT22;14648;49.730;8.614;2023-07-02T06:42:24;19.20;54.90
27114;DHT22;14648;49.730;8.614;2023-07-02T06:44:50;19.20;55.60
27114;DHT22;14648;49.730;8.614;2023-07-02T06:47:16;19.20;55.10
27114;DHT22;14648;49.730;8.614;2023-07-02T06:49:42;19.20;55.10
27114;DHT22;14648;49.730;8.614;2023-07-02T06:52:08;19.20;55.40
27114;DHT22;14648;49.730;8.614;2023-07-02T06:54:33;19.20;55.30
27114;DHT22;14648;49.730;8.614;2023-07-02T06:57:00;19.20;55.90
27114;DHT22;14648;49.730;8.614;2023-07-02T06:59:25;19.20;55.10
27114;DHT22;14648;49.730;8.614;2023-07-02T07:01:52;19.20;55.00
27114;DHT22;14648;49.730;8.614;2023-07-02T07:04:17;19.20;54.80
27114;DHT22;14648;49.730;8.614;2023-07-02T07:06:43;19.20;54.70
27114;DHT22;14648;49.730;8.614;2023-07-02T07:09:10;19.30;54.90
27114;DHT22;14648;49.730;8.614;2023-07-02T07:11:35;19.30;54.80
27114;DHT22;14648;49.730;8.614;2023-07-02T07:14:01;19.40;54.80
27114;DHT22;14648;49.730;8.614;2023-07-02T07:16:27;19.40;54.60
27114;DHT22;14648;49.730;8.614;2023-07-02T07:18:53;19.50;54.60
27114;DHT22;14648;49.730;8.614;2023-07-02T07:21:18;19.50;54.50
27114;DHT22;14648;49.730;8.614;2023-07-02T07:23:44;19.60;54.30
27114;DHT22;14648;49.730;8.614;2023-07-02T07:26:10;19.60;54.20
27114;DHT22;14648;49.730;8.614;2023-07-02T07:28:35;19.70;54.40
27114;DHT22;14648;49.730;8.614;2023-07-02T07:31:04;19.70;54.20
27114;DHT22;14648;49.730;8.614;2023-07-02T07:33:30;19.80;54.10
27114;DHT22;14648;49.730;8.614;2023-07-02T07:35:55;19.80;53.60
27114;DHT22;14648;49.730;8.614;2023-07-02T07:38:22;19.90;53.60
27114;DHT22;14648;49.730;8.614;2023-07-02T07:40:47;20.00;53.20
27114;DHT22;14648;49.730;8.614;2023-07-02T07:43:13;20.10;52.90
27114;DHT22;14648;49.730;8.614;2023-07-02T07:45:39;20.20;52.80
27114;DHT22;14648;49.730;8.614;2023-07-02T07:48:05;20.40;52.70
27114;DHT22;14648;49.730;8.614;2023-07-02T07:50:31;20.40;51.90
27114;DHT22;14648;49.730;8.614;2023-07-02T07:52:57;20.50;51.80
27114;DHT22;14648;49.730;8.614;2023-07-02T07:55:23;20.60;51.60
27114;DHT22;14648;49.730;8.614;2023-07-02T07:57:49;20.70;51.30
27114;DHT22;14648;49.730;8.614;2023-07-02T08:00:15;20.80;51.20
27114;DHT22;14648;49.730;8.614;2023-07-02T08:02:43;20.80;50.90
27114;DHT22;14648;49.730;8.614;2023-07-02T08:05:10;20.90;50.90
27114;DHT22;14648;49.730;8.614;2023-07-02T08:07:35;21.00;50.40
27114;DHT22;14648;49.730;8.614;2023-07-02T08:10:01;21.10;50.30
27114;DHT22;14648;49.730;8.614;2023-07-02T08:12:30;21.10;49.60
27114;DHT22;14648;49.730;8.614;2023-07-02T08:14:56;21.10;49.50
27114;DHT22;14648;49.730;8.614;2023-07-02T08:17:22;21.20;49.30
27114;DHT22;14648;49.730;8.614;2023-07-02T08:19:47;21.20;48.90
27114;DHT22;14648;49.730;8.614;2023-07-02T08:22:13;21.20;48.90
27114;DHT22;14648;49.730;8.614;2023-07-02T08:24:39;21.30;48.60
27114;DHT22;14648;49.730;8.614;2023-07-02T08:27:05;21.30;48.10
27114;DHT22;14648;49.730;8.614;2023-07-02T08:29:31;21.30;47.60
27114;DHT22;14648;49.730;8.614;2023-07-02T08:31:57;21.30;47.90
27114;DHT22;14648;49.730;8.614;2023-07-02T08:34:23;21.30;47.60
27114;DHT22;14648;49.730;8.614;2023-07-02T08:36:49;21.50;47.50
27114;DHT22;14648;49.730;8.614;2023-07-02T08:39:15;21.50;46.90
27114;DHT22;14648;49.730;8.614;2023-07-02T08:41:47;21.60;46.60
27114;DHT22;14648;49.730;8.614;2023-07-02T08:44:14;21.50;46.40
27114;DHT22;14648;49.730;8.614;2023-07-02T08:46:42;21.60;46.20
27114;DHT22;14648;49.730;8.614;2023-07-02T08:49:08;21.80;46.00
27114;DHT22;14648;49.730;8.614;2023-07-02T08:51:35;21.80;45.70
27114;DHT22;14648;49.730;8.614;2023-07-02T08:54:01;21.80;45.40
27114;DHT22;14648;49.730;8.614;2023-07-02T08:56:28;21.90;45.20
27114;DHT22;14648;49.730;8.614;2023-07-02T08:58:57;21.80;45.20
27114;DHT22;14648;49.730;8.614;2023-07-02T09:01:22;21.70;45.20
27114;DHT22;14648;49.730;8.614;2023-07-02T09:03:49;21.70;45.20
27114;DHT22;14648;49.730;8.614;2023-07-02T09:06:17;21.70;45.00
27114;DHT22;14648;49.730;8.614;2023-07-02T09:08:44;21.60;44.80
27114;DHT22;14648;49.730;8.614;2023-07-02T09:11:13;21.60;44.70
27114;DHT22;14648;49.730;8.614;2023-07-02T09:13:49;21.50;44.90
27114;DHT22;14648;49.730;8.614;2023-07-02T09:19:02;21.70;44.60
27114;DHT22;14648;49.730;8.614;2023-07-02T09:21:43;21.70;44.60
27114;DHT22;14648;49.730;8.614;2023-07-02T09:24:23;21.70;44.40
27114;DHT22;14648;49.730;8.614;2023-07-02T09:26:51;21.70;44.30
27114;DHT22;14648;49.730;8.614;2023-07-02T09:29:23;21.80;44.50
27114;DHT22;14648;49.730;8.614;2023-07-02T09:31:50;21.80;44.00
27114;DHT22;14648;49.730;8.614;2023-07-02T09:34:16;21.80;43.90
27114;DHT22;14648;49.730;8.614;2023-07-02T09:36:43;21.80;43.60
27114;DHT22;14648;49.730;8.614;2023-07-02T09:39:13;21.80;43.30
27114;DHT22;14648;49.730;8.614;2023-07-02T09:41:41;21.70;43.50
27114;DHT22;14648;49.730;8.614;2023-07-02T09:44:08;21.90;43.40
27114;DHT22;14648;49.730;8.614;2023-07-02T09:46:37;22.20;42.90
27114;DHT22;14648;49.730;8.614;2023-07-02T09:49:05;22.30;42.80
27114;DHT22;14648;49.730;8.614;2023-07-02T09:51:32;22.50;42.40
27114;DHT22;14648;49.730;8.614;2023-07-02T09:53:57;22.60;42.10
27114;DHT22;14648;49.730;8.614;2023-07-02T09:56:23;22.60;42.10
27114;DHT22;14648;49.730;8.614;2023-07-02T09:58:52;22.60;41.90
27114;DHT22;14648;49.730;8.614;2023-07-02T10:01:17;22.60;42.20
27114;DHT22;14648;49.730;8.614;2023-07-02T10:03:43;22.70;41.90
27114;DHT22;14648;49.730;8.614;2023-07-02T10:06:09;22.90;41.80
27114;DHT22;14648;49.730;8.614;2023-07-02T10:08:35;23.00;41.70
27114;DHT22;14648;49.730;8.614;2023-07-02T10:11:13;23.20;41.70
27114;DHT22;14648;49.730;8.614;2023-07-02T10:13:42;23.40;41.30
27114;DHT22;14648;49.730;8.614;2023-07-02T10:16:07;23.50;41.00
27114;DHT22;14648;49.730;8.614;2023-07-02T10:18:33;23.60;41.10
27114;DHT22;14648;49.730;8.614;2023-07-02T10:21:00;23.60;40.60
27114;DHT22;14648;49.730;8.614;2023-07-02T10:23:35;23.70;40.30
27114;DHT22;14648;49.730;8.614;2023-07-02T10:26:15;23.60;39.60
27114;DHT22;14648;49.730;8.614;2023-07-02T10:28:42;23.50;39.80
27114;DHT22;14648;49.730;8.614;2023-07-02T10:31:19;23.60;39.80
27114;DHT22;14648;49.730;8.614;2023-07-02T10:33:46;23.70;39.80
27114;DHT22;14648;49.730;8.614;2023-07-02T10:36:20;23.80;39.50
27114;DHT22;14648;49.730;8.614;2023-07-02T10:38:47;24.00;39.40
27114;DHT22;14648;49.730;8.614;2023-07-02T10:41:26;24.00;39.40
27114;DHT22;14648;49.730;8.614;2023-07-02T10:43:54;24.10;38.90
27114;DHT22;14648;49.730;8.614;2023-07-02T10:46:22;24.10;39.00
27114;DHT22;14648;49.730;8.614;2023-07-02T10:48:55;24.20;39.10
27114;DHT22;14648;49.730;8.614;2023-07-02T10:51:22;24.40;38.10
27114;DHT22;14648;49.730;8.614;2023-07-02T10:54:02;24.50;37.70
27114;DHT22;14648;49.730;8.614;2023-07-02T10:56:30;24.50;37.40
27114;DHT22;14648;49.730;8.614;2023-07-02T10:58:57;24.40;37.60
27114;DHT22;14648;49.730;8.614;2023-07-02T11:01:31;24.40;37.40
27114;DHT22;14648;49.730;8.614;2023-07-02T11:03:58;24.30;37.70
27114;DHT22;14648;49.730;8.614;2023-07-02T11:06:26;24.30;37.80
27114;DHT22;14648;49.730;8.614;2023-07-02T11:08:53;24.30;37.70
27114;DHT22;14648;49.730;8.614;2023-07-02T11:11:20;24.40;37.30
27114;DHT22;14648;49.730;8.614;2023-07-02T11:13:48;24.50;36.90
27114;DHT22;14648;49.730;8.614;2023-07-02T11:16:25;24.60;36.60
27114;DHT22;14648;49.730;8.614;2023-07-02T11:18:53;24.70;36.50
27114;DHT22;14648;49.730;8.614;2023-07-02T11:21:20;24.80;36.40
27114;DHT22;14648;49.730;8.614;2023-07-02T11:23:45;24.70;36.40
27114;DHT22;14648;49.730;8.614;2023-07-02T11:26:11;24.60;36.30
27114;DHT22;14648;49.730;8.614;2023-07-02T11:28:50;24.50;36.60
27114;DHT22;14648;49.730;8.614;2023-07-02T11:31:24;24.60;36.90
27114;DHT22;14648;49.730;8.614;2023-07-02T11:33:51;24.60;36.80
27114;DHT22;14648;49.730;8.614;2023-07-02T11:36:22;24.60;36.70
27114;DHT22;14648;49.730;8.614;2023-07-02T11:38:49;24.60;36.50
27114;DHT22;14648;49.730;8.614;2023-07-02T11:41:16;24.60;36.60
27114;DHT22;14648;49.730;8.614;2023-07-02T11:43:42;24.50;36.40
27114;DHT22;14648;49.730;8.614;2023-07-02T11:46:07;24.60;36.40
27114;DHT22;14648;49.730;8.614;2023-07-02T11:48:33;24.60;36.70
27114;DHT22;14648;49.730;8.614;2023-07-02T11:50:59;24.90;36.70
27114;DHT22;14648;49.730;8.614;2023-07-02T11:53:24;25.00;36.20
27114;DHT22;14648;49.730;8.614;2023-07-02T11:55:50;25.00;35.70
27114;DHT22;14648;49.730;8.614;2023-07-02T11:58:16;24.80;35.70
27114;DHT22;14648;49.730;8.614;2023-07-02T12:00:42;24.80;35.70
27114;DHT22;14648;49.730;8.614;2023-07-02T12:03:07;24.80;35.60
27114;DHT22;14648;49.730;8.614;2023-07-02T12:05:33;24.60;35.40
27114;DHT22;14648;49.730;8.614;2023-07-02T12:07:59;24.50;35.30
27114;DHT22;14648;49.730;8.614;2023-07-02T12:10:24;24.50;35.20
27114;DHT22;14648;49.730;8.614;2023-07-02T12:12:50;24.40;35.20
27114;DHT22;14648;49.730;8.614;2023-07-02T12:15:16;24.50;35.60
27114;DHT22;14648;49.730;8.614;2023-07-02T12:17:41;24.60;35.20
27114;DHT22;14648;49.730;8.614;2023-07-02T12:20:07;24.60;35.40
27114;DHT22;14648;49.730;8.614;2023-07-02T12:22:33;24.60;35.20
27114;DHT22;14648;49.730;8.614;2023-07-02T12:24:59;24.50;35.40
27114;DHT22;14648;49.730;8.614;2023-07-02T12:27:25;24.40;35.20
27114;DHT22;14648;49.730;8.614;2023-07-02T12:29:52;24.40;35.20
27114;DHT22;14648;49.730;8.614;2023-07-02T12:32:18;24.40;35.10
27114;DHT22;14648;49.730;8.614;2023-07-02T12:34:44;24.30;35.10
27114;DHT22;14648;49.730;8.614;2023-07-02T12:37:09;24.30;35.00
27114;DHT22;14648;49.730;8.614;2023-07-02T12:39:35;24.20;34.80
27114;DHT22;14648;49.730;8.614;2023-07-02T12:42:01;24.30;35.00
27114;DHT22;14648;49.730;8.614;2023-07-02T12:44:26;24.20;34.90
27114;DHT22;14648;49.730;8.614;2023-07-02T12:46:52;24.20;35.00
27114;DHT22;14648;49.730;8.614;2023-07-02T12:49:18;24.30;34.90
27114;DHT22;14648;49.730;8.614;2023-07-02T12:51:43;24.30;35.10
27114;DHT22;14648;49.730;8.614;2023-07-02T12:54:09;24.30;34.70
27114;DHT22;14648;49.730;8.614;2023-07-02T12:56:35;24.20;34.80
27114;DHT22;14648;49.730;8.614;2023-07-02T12:59:02;24.30;34.50
27114;DHT22;14648;49.730;8.614;2023-07-02T13:01:27;24.40;34.80
27114;DHT22;14648;49.730;8.614;2023-07-02T13:03:53;24.60;34.30
27114;DHT22;14648;49.730;8.614;2023-07-02T13:06:19;24.60;34.00
27114;DHT22;14648;49.730;8.614;2023-07-02T13:08:44;24.60;33.80
27114;DHT22;14648;49.730;8.614;2023-07-02T13:11:10;24.50;34.00
27114;DHT22;14648;49.730;8.614;2023-07-02T13:13:36;24.60;34.10
27114;DHT22;14648;49.730;8.614;2023-07-02T13:16:02;24.50;34.10
27114;DHT22;14648;49.730;8.614;2023-07-02T13:18:28;24.50;34.20
27114;DHT22;14648;49.730;8.614;2023-07-02T13:20:54;24.60;34.10
27114;DHT22;14648;49.730;8.614;2023-07-02T13:23:19;24.70;34.20
27114;DHT22;14648;49.730;8.614;2023-07-02T13:25:45;24.80;34.40
27114;DHT22;14648;49.730;8.614;2023-07-02T13:28:11;24.90;34.30
27114;DHT22;14648;49.730;8.614;2023-07-02T13:30:37;24.90;34.00
27114;DHT22;14648;49.730;8.614;2023-07-02T13:33:03;24.90;34.10
27114;DHT22;14648;49.730;8.614;2023-07-02T13:35:29;24.90;33.90
27114;DHT22;14648;49.730;8.614;2023-07-02T13:37:54;24.80;34.10
27114;DHT22;14648;49.730;8.614;2023-07-02T13:40:20;24.80;34.10
27114;DHT22;14648;49.730;8.614;2023-07-02T13:42:46;24.80;34.20
27114;DHT22;14648;49.730;8.614;2023-07-02T13:45:12;24.70;34.10
27114;DHT22;14648;49.730;8.614;2023-07-02T13:47:38;24.70;34.20
27114;DHT22;14648;49.730;8.614;2023-07-02T13:50:04;24.70;34.20
27114;DHT22;14648;49.730;8.614;2023-07-02T13:52:30;24.70;34.20
27114;DHT22;14648;49.730;8.614;2023-07-02T13:54:56;24.60;33.80
27114;DHT22;14648;49.730;8.614;2023-07-02T13:57:22;24.70;34.00
27114;DHT22;14648;49.730;8.614;2023-07-02T13:59:48;24.80;34.10
27114;DHT22;14648;49.730;8.614;2023-07-02T14:02:13;24.80;34.10
27114;DHT22;14648;49.730;8.614;2023-07-02T14:04:39;24.80;34.00
27114;DHT22;14648;49.730;8.614;2023-07-02T14:07:05;24.90;34.20
27114;DHT22;14648;49.730;8.614;2023-07-02T14:09:31;25.00;34.10
27114;DHT22;14648;49.730;8.614;2023-07-02T14:11:57;25.20;33.70
27114;DHT22;14648;49.730;8.614;2023-07-02T14:14:23;25.30;33.60
27114;DHT22;14648;49.730;8.614;2023-07-02T14:16:48;25.30;33.50
27114;DHT22;14648;49.730;8.614;2023-07-02T14:19:14;25.30;33.50
27114;DHT22;14648;49.730;8.614;2023-07-02T14:21:42;25.40;33.70
27114;DHT22;14648;49.730;8.614;2023-07-02T14:24:08;25.50;33.00
27114;DHT22;14648;49.730;8.614;2023-07-02T14:26:34;25.50;32.80
27114;DHT22;14648;49.730;8.614;2023-07-02T14:29:03;25.50;32.80
27114;DHT22;14648;49.730;8.614;2023-07-02T14:31:31;25.50;32.80
27114;DHT22;14648;49.730;8.614;2023-07-02T14:33:57;25.60;33.00
27114;DHT22;14648;49.730;8.614;2023-07-02T14:36:23;25.90;33.20
27114;DHT22;14648;49.730;8.614;2023-07-02T14:38:48;26.20;34.10
27114;DHT22;14648;49.730;8.614;2023-07-02T14:41:14;26.50;33.10
27114;DHT22;14648;49.730;8.614;2023-07-02T14:43:40;26.60;33.00
27114;DHT22;14648;49.730;8.614;2023-07-02T14:46:05;26.80;33.00
27114;DHT22;14648;49.730;8.614;2023-07-02T14:48:31;26.90;32.40
27114;DHT22;14648;49.730;8.614;2023-07-02T14:50:59;26.90;32.40
27114;DHT22;14648;49.730;8.614;2023-07-02T14:53:27;26.90;32.80
27114;DHT22;14648;49.730;8.614;2023-07-02T14:55:55;26.90;31.80
27114;DHT22;14648;49.730;8.614;2023-07-02T14:58:22;26.70;31.90
27114;DHT22;14648;49.730;8.614;2023-07-02T15:00:51;26.60;31.90
27114;DHT22;14648;49.730;8.614;2023-07-02T15:03:19;26.40;32.10
27114;DHT22;14648;49.730;8.614;2023-07-02T15:05:48;26.20;31.90
27114;DHT22;14648;49.730;8.614;2023-07-02T15:08:15;26.10;31.60
27114;DHT22;14648;49.730;8.614;2023-07-02T15:10:46;26.00;31.70
27114;DHT22;14648;49.730;8.614;2023-07-02T15:13:13;25.90;31.30
27114;DHT22;14648;49.730;8.614;2023-07-02T15:15:40;26.00;31.50
27114;DHT22;14648;49.730;8.614;2023-07-02T15:18:06;26.00;31.40
27114;DHT22;14648;49.730;8.614;2023-07-02T15:20:35;26.00;31.40
27114;DHT22;14648;49.730;8.614;2023-07-02T15:23:02;25.90;31.10
27114;DHT22;14648;49.730;8.614;2023-07-02T15:25:30;25.80;31.20
27114;DHT22;14648;49.730;8.614;2023-07-02T15:27:56;25.70;31.50
27114;DHT22;14648;49.730;8.614;2023-07-02T15:30:22;25.70;32.30
27114;DHT22;14648;49.730;8.614;2023-07-02T15:32:48;25.70;31.90